Longtown, Mississippi
Current Conditions -  °F | °C
As of 5:55 AM on Monday 22 Dec 2014 (Local Time) from KUTA Reporting Station
Haze Haze  
Wind Chill: 50°   Ceiling: 500
Heat Index: 50°   Visibility: 4mi
Dew Point: 48°   Wind: 13mph
Humidity: 94%   Direction: 150°SSE
Pressure: 29.84"   Gusts: NA
Location:  34.6036°N, 90.124°W
Report Text: KUTA 221155Z AUTO 15011KT 4SM BR OVC005 10/09 A2984 RMK AO2
Loading
Personal Weather Stations






























Interactive Weather Map New forecast layout! Learn more

10-Day Weather Forecast

Advertisements
Track Severe Weather on mobile